sensor_id;sensor_type;location;lat;lon;timestamp;temperature;humidity
54409;DHT22;40315;48.620;9.828;2023-06-10T00:02:38;17.10;99.90
54409;DHT22;40315;48.620;9.828;2023-06-10T00:07:34;17.10;99.90
54409;DHT22;40315;48.620;9.828;2023-06-10T00:10:07;17.00;99.90
54409;DHT22;40315;48.620;9.828;2023-06-10T00:12:36;16.90;99.90
54409;DHT22;40315;48.620;9.828;2023-06-10T00:15:06;17.00;99.90
54409;DHT22;40315;48.620;9.828;2023-06-10T00:17:34;17.20;99.90
54409;DHT22;40315;48.620;9.828;2023-06-10T00:20:06;17.20;99.90
54409;DHT22;40315;48.620;9.828;2023-06-10T00:25:05;17.30;99.90
54409;DHT22;40315;48.620;9.828;2023-06-10T00:27:32;17.40;99.90
54409;DHT22;40315;48.620;9.828;2023-06-10T00:30:05;17.40;99.90
54409;DHT22;40315;48.620;9.828;2023-06-10T00:35:02;17.40;99.90
54409;DHT22;40315;48.620;9.828;2023-06-10T00:37:30;17.30;99.90
54409;DHT22;40315;48.620;9.828;2023-06-10T00:39:58;17.00;99.90
54409;DHT22;40315;48.620;9.828;2023-06-10T00:42:25;17.00;99.90
54409;DHT22;40315;48.620;9.828;2023-06-10T00:44:52;17.10;99.90
54409;DHT22;40315;48.620;9.828;2023-06-10T00:49:48;17.10;99.90
54409;DHT22;40315;48.620;9.828;2023-06-10T00:52:19;17.00;99.90
54409;DHT22;40315;48.620;9.828;2023-06-10T00:54:47;17.00;99.90
54409;DHT22;40315;48.620;9.828;2023-06-10T00:57:14;16.90;99.90
54409;DHT22;40315;48.620;9.828;2023-06-10T00:59:43;16.90;99.90
54409;DHT22;40315;48.620;9.828;2023-06-10T01:04:42;16.80;99.90
54409;DHT22;40315;48.620;9.828;2023-06-10T01:07:17;16.70;99.90
54409;DHT22;40315;48.620;9.828;2023-06-10T01:09:49;16.50;99.90
54409;DHT22;40315;48.620;9.828;2023-06-10T01:12:29;16.60;99.90
54409;DHT22;40315;48.620;9.828;2023-06-10T01:15:01;16.80;99.90
54409;DHT22;40315;48.620;9.828;2023-06-10T01:17:29;16.90;99.90
54409;DHT22;40315;48.620;9.828;2023-06-10T01:20:04;16.70;99.90
54409;DHT22;40315;48.620;9.828;2023-06-10T01:22:42;16.60;99.90
54409;DHT22;40315;48.620;9.828;2023-06-10T01:25:11;16.50;99.90
54409;DHT22;40315;48.620;9.828;2023-06-10T01:27:40;16.40;99.90
54409;DHT22;40315;48.620;9.828;2023-06-10T01:30:13;16.40;99.90
54409;DHT22;40315;48.620;9.828;2023-06-10T01:32:45;16.60;99.90
54409;DHT22;40315;48.620;9.828;2023-06-10T01:35:15;16.70;99.90
54409;DHT22;40315;48.620;9.828;2023-06-10T01:37:46;16.60;99.90
54409;DHT22;40315;48.620;9.828;2023-06-10T01:40:13;16.50;99.90
54409;DHT22;40315;48.620;9.828;2023-06-10T01:42:46;16.30;99.90
54409;DHT22;40315;48.620;9.828;2023-06-10T01:45:15;16.30;99.90
54409;DHT22;40315;48.620;9.828;2023-06-10T01:51:26;16.30;99.90
54409;DHT22;40315;48.620;9.828;2023-06-10T01:53:54;16.20;99.90
54409;DHT22;40315;48.620;9.828;2023-06-10T01:56:21;16.10;99.90
54409;DHT22;40315;48.620;9.828;2023-06-10T01:58:54;16.00;99.90
54409;DHT22;40315;48.620;9.828;2023-06-10T02:04:00;16.20;99.90
54409;DHT22;40315;48.620;9.828;2023-06-10T02:06:27;16.20;99.90
54409;DHT22;40315;48.620;9.828;2023-06-10T02:08:57;16.20;99.90
54409;DHT22;40315;48.620;9.828;2023-06-10T02:16:21;16.00;99.90
54409;DHT22;40315;48.620;9.828;2023-06-10T02:18:56;16.10;99.90
54409;DHT22;40315;48.620;9.828;2023-06-10T02:21:24;16.10;99.90
54409;DHT22;40315;48.620;9.828;2023-06-10T02:23:55;16.10;99.90
54409;DHT22;40315;48.620;9.828;2023-06-10T02:26:24;15.80;99.90
54409;DHT22;40315;48.620;9.828;2023-06-10T02:28:51;15.80;99.90
54409;DHT22;40315;48.620;9.828;2023-06-10T02:31:21;15.80;99.90
54409;DHT22;40315;48.620;9.828;2023-06-10T02:33:53;16.10;99.90
54409;DHT22;40315;48.620;9.828;2023-06-10T02:38:56;16.20;99.90
54409;DHT22;40315;48.620;9.828;2023-06-10T02:41:24;16.20;99.90
54409;DHT22;40315;48.620;9.828;2023-06-10T02:43:52;16.00;99.90
54409;DHT22;40315;48.620;9.828;2023-06-10T02:46:20;15.30;99.90
54409;DHT22;40315;48.620;9.828;2023-06-10T02:51:21;15.50;99.90
54409;DHT22;40315;48.620;9.828;2023-06-10T02:53:53;15.40;99.90
54409;DHT22;40315;48.620;9.828;2023-06-10T02:56:27;15.30;99.90
54409;DHT22;40315;48.620;9.828;2023-06-10T02:58:57;15.40;99.90
54409;DHT22;40315;48.620;9.828;2023-06-10T03:01:26;15.50;99.90
54409;DHT22;40315;48.620;9.828;2023-06-10T03:04:04;15.40;99.90
54409;DHT22;40315;48.620;9.828;2023-06-10T03:06:32;15.40;99.90
54409;DHT22;40315;48.620;9.828;2023-06-10T03:09:12;15.60;99.90
54409;DHT22;40315;48.620;9.828;2023-06-10T03:11:43;15.50;99.90
54409;DHT22;40315;48.620;9.828;2023-06-10T03:14:10;15.60;99.90
54409;DHT22;40315;48.620;9.828;2023-06-10T03:16:38;15.50;99.90
54409;DHT22;40315;48.620;9.828;2023-06-10T03:19:07;15.50;99.90
54409;DHT22;40315;48.620;9.828;2023-06-10T03:21:35;15.60;99.90
54409;DHT22;40315;48.620;9.828;2023-06-10T03:24:07;15.60;99.90
54409;DHT22;40315;48.620;9.828;2023-06-10T03:26:34;15.60;99.90
54409;DHT22;40315;48.620;9.828;2023-06-10T03:29:03;13.00;99.90
54409;DHT22;40315;48.620;9.828;2023-06-10T03:31:31;15.40;99.90
54409;DHT22;40315;48.620;9.828;2023-06-10T03:33:58;15.40;99.90
54409;DHT22;40315;48.620;9.828;2023-06-10T03:36:26;15.40;99.90
54409;DHT22;40315;48.620;9.828;2023-06-10T03:38:55;15.50;99.90
54409;DHT22;40315;48.620;9.828;2023-06-10T03:41:23;15.40;99.90
54409;DHT22;40315;48.620;9.828;2023-06-10T03:43:51;15.30;99.90
54409;DHT22;40315;48.620;9.828;2023-06-10T03:46:23;15.30;99.90
54409;DHT22;40315;48.620;9.828;2023-06-10T03:48:50;15.20;99.90
54409;DHT22;40315;48.620;9.828;2023-06-10T03:51:21;15.50;99.90
54409;DHT22;40315;48.620;9.828;2023-06-10T03:53:49;15.50;99.90
54409;DHT22;40315;48.620;9.828;2023-06-10T03:56:18;15.60;99.90
54409;DHT22;40315;48.620;9.828;2023-06-10T03:58:45;15.70;99.90
54409;DHT22;40315;48.620;9.828;2023-06-10T04:01:12;15.70;99.90
54409;DHT22;40315;48.620;9.828;2023-06-10T04:03:41;15.70;99.90
54409;DHT22;40315;48.620;9.828;2023-06-10T04:06:09;15.60;99.90
54409;DHT22;40315;48.620;9.828;2023-06-10T04:08:36;15.40;99.90
54409;DHT22;40315;48.620;9.828;2023-06-10T04:13:30;15.10;99.90
54409;DHT22;40315;48.620;9.828;2023-06-10T04:15:59;15.00;99.90
54409;DHT22;40315;48.620;9.828;2023-06-10T04:21:05;15.20;99.90
54409;DHT22;40315;48.620;9.828;2023-06-10T04:26:04;15.00;99.90
54409;DHT22;40315;48.620;9.828;2023-06-10T04:28:32;15.00;99.90
54409;DHT22;40315;48.620;9.828;2023-06-10T04:31:02;15.00;99.90
54409;DHT22;40315;48.620;9.828;2023-06-10T04:33:32;15.20;99.90
54409;DHT22;40315;48.620;9.828;2023-06-10T04:36:01;15.40;99.90
54409;DHT22;40315;48.620;9.828;2023-06-10T04:38:31;15.30;99.90
54409;DHT22;40315;48.620;9.828;2023-06-10T04:41:00;15.20;99.90
54409;DHT22;40315;48.620;9.828;2023-06-10T04:43:31;15.30;99.90
54409;DHT22;40315;48.620;9.828;2023-06-10T04:46:02;15.20;99.90
54409;DHT22;40315;48.620;9.828;2023-06-10T04:48:32;15.30;99.90
54409;DHT22;40315;48.620;9.828;2023-06-10T04:53:28;15.40;99.90
54409;DHT22;40315;48.620;9.828;2023-06-10T04:55:57;15.40;99.90
54409;DHT22;40315;48.620;9.828;2023-06-10T04:58:26;15.40;99.90
54409;DHT22;40315;48.620;9.828;2023-06-10T05:00:53;15.50;99.90
54409;DHT22;40315;48.620;9.828;2023-06-10T05:03:22;15.50;99.90
54409;DHT22;40315;48.620;9.828;2023-06-10T05:05:51;15.60;99.90
54409;DHT22;40315;48.620;9.828;2023-06-10T05:08:20;16.50;99.90
54409;DHT22;40315;48.620;9.828;2023-06-10T05:10:50;18.30;99.90
54409;DHT22;40315;48.620;9.828;2023-06-10T05:13:18;20.70;99.90
54409;DHT22;40315;48.620;9.828;2023-06-10T05:15:45;22.60;99.90
54409;DHT22;40315;48.620;9.828;2023-06-10T05:18:12;23.90;99.90
54409;DHT22;40315;48.620;9.828;2023-06-10T05:20:39;25.20;99.90
54409;DHT22;40315;48.620;9.828;2023-06-10T05:23:06;26.40;99.90
54409;DHT22;40315;48.620;9.828;2023-06-10T05:25:33;27.00;99.80
54409;DHT22;40315;48.620;9.828;2023-06-10T05:28:00;27.70;98.00
54409;DHT22;40315;48.620;9.828;2023-06-10T05:30:31;28.10;96.50
54409;DHT22;40315;48.620;9.828;2023-06-10T05:33:00;28.00;96.10
54409;DHT22;40315;48.620;9.828;2023-06-10T05:35:27;28.10;96.10
54409;DHT22;40315;48.620;9.828;2023-06-10T05:37:54;28.20;95.80
54409;DHT22;40315;48.620;9.828;2023-06-10T05:40:21;28.00;95.40
54409;DHT22;40315;48.620;9.828;2023-06-10T05:42:48;27.40;95.90
54409;DHT22;40315;48.620;9.828;2023-06-10T05:45:15;27.30;95.70
54409;DHT22;40315;48.620;9.828;2023-06-10T05:47:44;27.00;96.00
54409;DHT22;40315;48.620;9.828;2023-06-10T05:50:10;26.90;96.40
54409;DHT22;40315;48.620;9.828;2023-06-10T05:52:40;26.90;96.40
54409;DHT22;40315;48.620;9.828;2023-06-10T05:55:07;26.80;97.20
54409;DHT22;40315;48.620;9.828;2023-06-10T05:57:35;26.50;97.10
54409;DHT22;40315;48.620;9.828;2023-06-10T06:00:05;25.60;98.20
54409;DHT22;40315;48.620;9.828;2023-06-10T06:02:38;24.60;99.20
54409;DHT22;40315;48.620;9.828;2023-06-10T06:05:07;24.90;99.90
54409;DHT22;40315;48.620;9.828;2023-06-10T06:07:34;25.00;99.90
54409;DHT22;40315;48.620;9.828;2023-06-10T06:10:01;24.40;99.90
54409;DHT22;40315;48.620;9.828;2023-06-10T06:12:28;24.30;99.90
54409;DHT22;40315;48.620;9.828;2023-06-10T06:14:55;24.10;99.90
54409;DHT22;40315;48.620;9.828;2023-06-10T06:17:24;24.30;99.90
54409;DHT22;40315;48.620;9.828;2023-06-10T06:19:51;24.40;99.90
54409;DHT22;40315;48.620;9.828;2023-06-10T06:22:19;24.10;99.90
54409;DHT22;40315;48.620;9.828;2023-06-10T06:24:50;24.00;99.90
54409;DHT22;40315;48.620;9.828;2023-06-10T06:27:17;23.90;99.90
54409;DHT22;40315;48.620;9.828;2023-06-10T06:29:46;23.60;99.90
54409;DHT22;40315;48.620;9.828;2023-06-10T06:32:15;23.60;99.90
54409;DHT22;40315;48.620;9.828;2023-06-10T06:34:42;23.90;99.90
54409;DHT22;40315;48.620;9.828;2023-06-10T06:37:09;24.50;99.90
54409;DHT22;40315;48.620;9.828;2023-06-10T06:39:42;24.70;99.90
54409;DHT22;40315;48.620;9.828;2023-06-10T06:42:08;24.90;99.90
54409;DHT22;40315;48.620;9.828;2023-06-10T06:45:06;24.90;99.90
54409;DHT22;40315;48.620;9.828;2023-06-10T06:47:33;24.90;99.90
54409;DHT22;40315;48.620;9.828;2023-06-10T06:50:02;24.80;99.90
54409;DHT22;40315;48.620;9.828;2023-06-10T06:52:29;24.90;99.90
54409;DHT22;40315;48.620;9.828;2023-06-10T06:55:00;25.10;99.90
54409;DHT22;40315;48.620;9.828;2023-06-10T06:57:27;25.30;99.90
54409;DHT22;40315;48.620;9.828;2023-06-10T06:59:54;25.10;99.90
54409;DHT22;40315;48.620;9.828;2023-06-10T07:02:21;25.30;99.90
54409;DHT22;40315;48.620;9.828;2023-06-10T07:04:48;25.60;99.80
54409;DHT22;40315;48.620;9.828;2023-06-10T07:07:16;25.30;99.90
54409;DHT22;40315;48.620;9.828;2023-06-10T07:09:42;25.30;99.90
54409;DHT22;40315;48.620;9.828;2023-06-10T07:12:11;25.50;99.90
54409;DHT22;40315;48.620;9.828;2023-06-10T07:14:38;25.60;99.90
54409;DHT22;40315;48.620;9.828;2023-06-10T07:17:05;25.10;99.90
54409;DHT22;40315;48.620;9.828;2023-06-10T07:19:33;25.10;99.90
54409;DHT22;40315;48.620;9.828;2023-06-10T07:22:00;25.50;99.90
54409;DHT22;40315;48.620;9.828;2023-06-10T07:24:27;26.00;99.90
54409;DHT22;40315;48.620;9.828;2023-06-10T07:26:54;25.80;99.20
54409;DHT22;40315;48.620;9.828;2023-06-10T07:29:22;25.50;99.00
54409;DHT22;40315;48.620;9.828;2023-06-10T07:31:49;25.10;99.40
54409;DHT22;40315;48.620;9.828;2023-06-10T07:34:16;25.10;99.90
54409;DHT22;40315;48.620;9.828;2023-06-10T07:36:43;25.10;99.40
54409;DHT22;40315;48.620;9.828;2023-06-10T07:39:13;24.90;99.90
54409;DHT22;40315;48.620;9.828;2023-06-10T07:41:40;25.10;99.90
54409;DHT22;40315;48.620;9.828;2023-06-10T07:44:07;25.70;99.90
54409;DHT22;40315;48.620;9.828;2023-06-10T07:46:35;26.00;99.10
54409;DHT22;40315;48.620;9.828;2023-06-10T07:49:02;25.60;99.20
54409;DHT22;40315;48.620;9.828;2023-06-10T07:51:29;25.10;99.20
54409;DHT22;40315;48.620;9.828;2023-06-10T07:53:56;25.40;99.10
54409;DHT22;40315;48.620;9.828;2023-06-10T07:56:23;25.30;99.50
54409;DHT22;40315;48.620;9.828;2023-06-10T07:58:54;25.40;99.30
54409;DHT22;40315;48.620;9.828;2023-06-10T08:01:22;25.50;99.60
54409;DHT22;40315;48.620;9.828;2023-06-10T08:03:51;25.90;98.80
54409;DHT22;40315;48.620;9.828;2023-06-10T08:06:18;25.90;99.00
54409;DHT22;40315;48.620;9.828;2023-06-10T08:08:45;26.30;99.10
54409;DHT22;40315;48.620;9.828;2023-06-10T08:11:14;26.40;97.80
54409;DHT22;40315;48.620;9.828;2023-06-10T08:13:41;26.50;98.10
54409;DHT22;40315;48.620;9.828;2023-06-10T08:16:08;26.40;98.20
54409;DHT22;40315;48.620;9.828;2023-06-10T08:18:38;26.30;98.30
54409;DHT22;40315;48.620;9.828;2023-06-10T08:21:06;26.30;98.00
54409;DHT22;40315;48.620;9.828;2023-06-10T08:23:33;26.50;97.80
54409;DHT22;40315;48.620;9.828;2023-06-10T08:26:00;26.20;97.20
54409;DHT22;40315;48.620;9.828;2023-06-10T08:28:27;25.80;97.60
54409;DHT22;40315;48.620;9.828;2023-06-10T08:30:54;25.80;97.60
54409;DHT22;40315;48.620;9.828;2023-06-10T08:33:22;26.00;97.60
54409;DHT22;40315;48.620;9.828;2023-06-10T08:35:49;26.00;98.10
54409;DHT22;40315;48.620;9.828;2023-06-10T08:38:17;26.10;98.20
54409;DHT22;40315;48.620;9.828;2023-06-10T08:40:44;26.00;98.30
54409;DHT22;40315;48.620;9.828;2023-06-10T08:43:17;26.10;98.20
54409;DHT22;40315;48.620;9.828;2023-06-10T08:45:50;26.20;97.30
54409;DHT22;40315;48.620;9.828;2023-06-10T08:48:19;26.20;97.50
54409;DHT22;40315;48.620;9.828;2023-06-10T08:50:47;26.20;96.80
54409;DHT22;40315;48.620;9.828;2023-06-10T08:53:19;26.10;96.20
54409;DHT22;40315;48.620;9.828;2023-06-10T08:55:50;26.10;97.20
54409;DHT22;40315;48.620;9.828;2023-06-10T08:58:18;26.10;97.10
54409;DHT22;40315;48.620;9.828;2023-06-10T09:00:45;27.20;96.50
54409;DHT22;40315;48.620;9.828;2023-06-10T09:03:12;27.20;95.00
54409;DHT22;40315;48.620;9.828;2023-06-10T09:05:41;27.10;95.60
54409;DHT22;40315;48.620;9.828;2023-06-10T09:08:08;26.90;95.70
54409;DHT22;40315;48.620;9.828;2023-06-10T09:10:38;26.80;96.10
54409;DHT22;40315;48.620;9.828;2023-06-10T09:13:05;26.80;95.50
54409;DHT22;40315;48.620;9.828;2023-06-10T09:15:32;26.40;96.40
54409;DHT22;40315;48.620;9.828;2023-06-10T09:20:27;26.40;96.40
54409;DHT22;40315;48.620;9.828;2023-06-10T09:22:55;26.10;96.30
54409;DHT22;40315;48.620;9.828;2023-06-10T09:25:34;26.10;96.60
54409;DHT22;40315;48.620;9.828;2023-06-10T09:28:13;26.10;96.40
54409;DHT22;40315;48.620;9.828;2023-06-10T09:30:40;25.90;96.60
54409;DHT22;40315;48.620;9.828;2023-06-10T09:33:10;26.10;96.90
54409;DHT22;40315;48.620;9.828;2023-06-10T09:35:45;26.20;97.30
54409;DHT22;40315;48.620;9.828;2023-06-10T09:38:14;26.30;95.90
54409;DHT22;40315;48.620;9.828;2023-06-10T09:40:49;26.30;95.60
54409;DHT22;40315;48.620;9.828;2023-06-10T09:43:18;26.50;94.70
54409;DHT22;40315;48.620;9.828;2023-06-10T09:45:48;25.90;96.40
54409;DHT22;40315;48.620;9.828;2023-06-10T09:48:15;26.50;96.50
54409;DHT22;40315;48.620;9.828;2023-06-10T09:50:42;27.00;96.30
54409;DHT22;40315;48.620;9.828;2023-06-10T09:53:13;27.40;95.00
54409;DHT22;40315;48.620;9.828;2023-06-10T09:55:41;27.00;94.80
54409;DHT22;40315;48.620;9.828;2023-06-10T09:58:08;27.00;95.20
54409;DHT22;40315;48.620;9.828;2023-06-10T10:00:37;27.30;94.80
54409;DHT22;40315;48.620;9.828;2023-06-10T10:03:04;27.30;94.90
54409;DHT22;40315;48.620;9.828;2023-06-10T10:05:34;27.10;94.90
54409;DHT22;40315;48.620;9.828;2023-06-10T10:08:02;26.90;95.60
54409;DHT22;40315;48.620;9.828;2023-06-10T10:10:29;26.70;94.90
54409;DHT22;40315;48.620;9.828;2023-06-10T10:12:58;27.10;95.40
54409;DHT22;40315;48.620;9.828;2023-06-10T10:15:31;27.60;93.30
54409;DHT22;40315;48.620;9.828;2023-06-10T10:18:06;27.60;93.20
54409;DHT22;40315;48.620;9.828;2023-06-10T10:20:37;27.10;94.30
54409;DHT22;40315;48.620;9.828;2023-06-10T10:23:08;27.30;93.90
54409;DHT22;40315;48.620;9.828;2023-06-10T10:25:38;27.40;94.10
54409;DHT22;40315;48.620;9.828;2023-06-10T10:28:09;27.60;93.50
54409;DHT22;40315;48.620;9.828;2023-06-10T10:30:40;27.50;93.50
54409;DHT22;40315;48.620;9.828;2023-06-10T10:33:16;27.00;93.40
54409;DHT22;40315;48.620;9.828;2023-06-10T10:35:43;26.80;93.90
54409;DHT22;40315;48.620;9.828;2023-06-10T10:38:11;27.00;93.60
54409;DHT22;40315;48.620;9.828;2023-06-10T10:40:39;27.80;92.50
54409;DHT22;40315;48.620;9.828;2023-06-10T10:43:08;27.90;91.50
54409;DHT22;40315;48.620;9.828;2023-06-10T10:45:35;28.60;91.90
54409;DHT22;40315;48.620;9.828;2023-06-10T10:48:06;28.50;91.20
54409;DHT22;40315;48.620;9.828;2023-06-10T10:50:39;28.80;87.60
54409;DHT22;40315;48.620;9.828;2023-06-10T10:53:06;28.30;89.00
54409;DHT22;40315;48.620;9.828;2023-06-10T10:55:33;28.60;89.80
54409;DHT22;40315;48.620;9.828;2023-06-10T10:58:04;28.40;88.40
54409;DHT22;40315;48.620;9.828;2023-06-10T11:00:32;29.20;87.70
54409;DHT22;40315;48.620;9.828;2023-06-10T11:03:04;29.30;87.00
54409;DHT22;40315;48.620;9.828;2023-06-10T11:05:39;29.30;87.50
54409;DHT22;40315;48.620;9.828;2023-06-10T11:08:09;29.40;87.00
54409;DHT22;40315;48.620;9.828;2023-06-10T11:10:37;29.70;86.30
54409;DHT22;40315;48.620;9.828;2023-06-10T11:13:09;29.50;84.60
54409;DHT22;40315;48.620;9.828;2023-06-10T11:15:44;29.10;85.70
54409;DHT22;40315;48.620;9.828;2023-06-10T11:18:23;28.80;86.80
54409;DHT22;40315;48.620;9.828;2023-06-10T11:20:58;28.60;87.10
54409;DHT22;40315;48.620;9.828;2023-06-10T11:23:39;28.50;87.20
54409;DHT22;40315;48.620;9.828;2023-06-10T11:26:13;28.60;86.90
54409;DHT22;40315;48.620;9.828;2023-06-10T11:28:42;29.00;85.00
54409;DHT22;40315;48.620;9.828;2023-06-10T11:31:28;29.30;84.10
54409;DHT22;40315;48.620;9.828;2023-06-10T11:33:57;29.60;84.90
54409;DHT22;40315;48.620;9.828;2023-06-10T11:36:27;29.80;83.60
54409;DHT22;40315;48.620;9.828;2023-06-10T11:38:56;30.10;82.50
54409;DHT22;40315;48.620;9.828;2023-06-10T11:41:23;30.40;82.10
54409;DHT22;40315;48.620;9.828;2023-06-10T11:43:52;30.20;80.30
54409;DHT22;40315;48.620;9.828;2023-06-10T11:46:20;30.70;80.50
54409;DHT22;40315;48.620;9.828;2023-06-10T11:48:51;31.00;78.90
54409;DHT22;40315;48.620;9.828;2023-06-10T11:51:21;30.80;79.00
54409;DHT22;40315;48.620;9.828;2023-06-10T11:53:53;31.10;79.60
54409;DHT22;40315;48.620;9.828;2023-06-10T11:56:20;30.50;78.20
54409;DHT22;40315;48.620;9.828;2023-06-10T11:58:53;30.20;81.00
54409;DHT22;40315;48.620;9.828;2023-06-10T12:01:21;30.50;78.40
54409;DHT22;40315;48.620;9.828;2023-06-10T12:03:57;29.70;79.00
54409;DHT22;40315;48.620;9.828;2023-06-10T12:06:24;29.50;80.00
54409;DHT22;40315;48.620;9.828;2023-06-10T12:08:53;29.50;80.00
54409;DHT22;40315;48.620;9.828;2023-06-10T12:11:21;29.30;81.20
54409;DHT22;40315;48.620;9.828;2023-06-10T12:13:50;28.80;80.60
54409;DHT22;40315;48.620;9.828;2023-06-10T12:16:20;28.70;83.20
54409;DHT22;40315;48.620;9.828;2023-06-10T12:18:48;28.40;82.70
54409;DHT22;40315;48.620;9.828;2023-06-10T12:21:17;28.60;82.40
54409;DHT22;40315;48.620;9.828;2023-06-10T12:24:01;28.40;83.30
54409;DHT22;40315;48.620;9.828;2023-06-10T12:26:40;28.40;84.60
54409;DHT22;40315;48.620;9.828;2023-06-10T12:29:21;28.50;84.30
54409;DHT22;40315;48.620;9.828;2023-06-10T12:32:08;28.60;82.00
54409;DHT22;40315;48.620;9.828;2023-06-10T12:34:37;28.40;83.30
54409;DHT22;40315;48.620;9.828;2023-06-10T12:37:10;28.70;85.00
54409;DHT22;40315;48.620;9.828;2023-06-10T12:39:41;29.30;83.00
54409;DHT22;40315;48.620;9.828;2023-06-10T12:42:09;29.70;81.40
54409;DHT22;40315;48.620;9.828;2023-06-10T12:44:39;30.70;78.40
54409;DHT22;40315;48.620;9.828;2023-06-10T12:47:10;30.90;76.90
54409;DHT22;40315;48.620;9.828;2023-06-10T12:49:39;30.60;77.80
54409;DHT22;40315;48.620;9.828;2023-06-10T12:52:08;30.50;79.70
54409;DHT22;40315;48.620;9.828;2023-06-10T12:54:35;30.30;80.80
54409;DHT22;40315;48.620;9.828;2023-06-10T12:57:06;30.40;81.30
54409;DHT22;40315;48.620;9.828;2023-06-10T12:59:36;30.50;82.00
54409;DHT22;40315;48.620;9.828;2023-06-10T13:02:03;31.40;78.50
54409;DHT22;40315;48.620;9.828;2023-06-10T13:04:30;31.30;76.60
54409;DHT22;40315;48.620;9.828;2023-06-10T13:06:57;30.50;79.20
54409;DHT22;40315;48.620;9.828;2023-06-10T13:09:24;30.30;80.30
54409;DHT22;40315;48.620;9.828;2023-06-10T13:11:51;29.70;81.00
54409;DHT22;40315;48.620;9.828;2023-06-10T13:14:20;29.30;81.20
54409;DHT22;40315;48.620;9.828;2023-06-10T13:16:48;28.50;84.00
54409;DHT22;40315;48.620;9.828;2023-06-10T13:19:17;28.40;84.80
54409;DHT22;40315;48.620;9.828;2023-06-10T13:21:47;28.60;85.40
54409;DHT22;40315;48.620;9.828;2023-06-10T13:24:14;28.40;85.50
54409;DHT22;40315;48.620;9.828;2023-06-10T13:26:41;27.90;86.20
54409;DHT22;40315;48.620;9.828;2023-06-10T13:29:08;27.60;86.80
54409;DHT22;40315;48.620;9.828;2023-06-10T13:31:41;27.10;87.40
54409;DHT22;40315;48.620;9.828;2023-06-10T13:34:08;27.00;87.90
54409;DHT22;40315;48.620;9.828;2023-06-10T13:36:35;27.00;89.00
54409;DHT22;40315;48.620;9.828;2023-06-10T13:39:04;27.40;87.80
54409;DHT22;40315;48.620;9.828;2023-06-10T13:41:34;28.10;86.20
54409;DHT22;40315;48.620;9.828;2023-06-10T13:44:01;28.10;86.90
54409;DHT22;40315;48.620;9.828;2023-06-10T13:46:28;29.00;84.50
54409;DHT22;40315;48.620;9.828;2023-06-10T13:48:56;28.90;85.20
54409;DHT22;40315;48.620;9.828;2023-06-10T13:51:23;29.10;84.20
54409;DHT22;40315;48.620;9.828;2023-06-10T13:53:53;28.70;84.40
54409;DHT22;40315;48.620;9.828;2023-06-10T13:56:22;28.30;85.50
54409;DHT22;40315;48.620;9.828;2023-06-10T13:58:52;28.00;86.10
54409;DHT22;40315;48.620;9.828;2023-06-10T14:01:19;28.00;84.80
54409;DHT22;40315;48.620;9.828;2023-06-10T14:03:48;27.90;85.40
54409;DHT22;40315;48.620;9.828;2023-06-10T14:08:44;27.90;84.70
54409;DHT22;40315;48.620;9.828;2023-06-10T14:11:11;27.60;85.60
54409;DHT22;40315;48.620;9.828;2023-06-10T14:13:39;28.00;84.10
54409;DHT22;40315;48.620;9.828;2023-06-10T14:16:06;28.10;84.60
54409;DHT22;40315;48.620;9.828;2023-06-10T14:18:35;28.80;83.70
54409;DHT22;40315;48.620;9.828;2023-06-10T14:21:02;28.70;84.00
54409;DHT22;40315;48.620;9.828;2023-06-10T14:23:32;29.50;82.80
54409;DHT22;40315;48.620;9.828;2023-06-10T14:26:02;29.60;80.60
54409;DHT22;40315;48.620;9.828;2023-06-10T14:28:31;29.80;80.10
54409;DHT22;40315;48.620;9.828;2023-06-10T14:30:58;29.60;81.60
54409;DHT22;40315;48.620;9.828;2023-06-10T14:33:25;29.90;80.90
54409;DHT22;40315;48.620;9.828;2023-06-10T14:35:52;30.30;77.10
54409;DHT22;40315;48.620;9.828;2023-06-10T14:38:19;30.20;78.30
54409;DHT22;40315;48.620;9.828;2023-06-10T14:40:47;29.90;78.00
54409;DHT22;40315;48.620;9.828;2023-06-10T14:43:14;30.30;78.80
54409;DHT22;40315;48.620;9.828;2023-06-10T14:45:41;30.20;77.20
54409;DHT22;40315;48.620;9.828;2023-06-10T14:48:09;30.00;75.60
54409;DHT22;40315;48.620;9.828;2023-06-10T14:50:36;30.00;73.70
54409;DHT22;40315;48.620;9.828;2023-06-10T14:53:06;30.10;75.00
54409;DHT22;40315;48.620;9.828;2023-06-10T14:55:33;30.50;74.10
54409;DHT22;40315;48.620;9.828;2023-06-10T14:58:02;30.50;74.00
54409;DHT22;40315;48.620;9.828;2023-06-10T15:00:29;30.30;73.90
54409;DHT22;40315;48.620;9.828;2023-06-10T15:02:56;30.30;74.80
54409;DHT22;40315;48.620;9.828;2023-06-10T15:05:23;30.00;75.90
54409;DHT22;40315;48.620;9.828;2023-06-10T15:07:50;30.10;76.00
54409;DHT22;40315;48.620;9.828;2023-06-10T15:10:17;30.20;77.10
54409;DHT22;40315;48.620;9.828;2023-06-10T15:12:49;30.40;75.40
54409;DHT22;40315;48.620;9.828;2023-06-10T15:15:22;30.10;75.70
54409;DHT22;40315;48.620;9.828;2023-06-10T15:17:52;29.70;77.40
54409;DHT22;40315;48.620;9.828;2023-06-10T15:20:19;29.30;74.40
54409;DHT22;40315;48.620;9.828;2023-06-10T15:22:49;29.00;75.80
54409;DHT22;40315;48.620;9.828;2023-06-10T15:25:16;29.00;76.30
54409;DHT22;40315;48.620;9.828;2023-06-10T15:27:43;29.30;74.80
54409;DHT22;40315;48.620;9.828;2023-06-10T15:30:13;29.40;75.80
54409;DHT22;40315;48.620;9.828;2023-06-10T15:32:41;29.40;73.00
54409;DHT22;40315;48.620;9.828;2023-06-10T15:35:09;29.20;75.60
54409;DHT22;40315;48.620;9.828;2023-06-10T15:37:36;29.10;77.70
54409;DHT22;40315;48.620;9.828;2023-06-10T15:40:04;29.10;77.10
54409;DHT22;40315;48.620;9.828;2023-06-10T15:42:31;28.90;78.50
54409;DHT22;40315;48.620;9.828;2023-06-10T15:44:58;29.00;80.10
54409;DHT22;40315;48.620;9.828;2023-06-10T15:47:25;29.30;78.10
54409;DHT22;40315;48.620;9.828;2023-06-10T15:49:54;29.40;77.60
54409;DHT22;40315;48.620;9.828;2023-06-10T15:52:24;29.60;77.30
54409;DHT22;40315;48.620;9.828;2023-06-10T15:54:51;29.40;77.10
54409;DHT22;40315;48.620;9.828;2023-06-10T15:57:18;29.20;78.10
54409;DHT22;40315;48.620;9.828;2023-06-10T15:59:48;29.20;77.20
54409;DHT22;40315;48.620;9.828;2023-06-10T16:02:15;29.00;75.90
54409;DHT22;40315;48.620;9.828;2023-06-10T16:04:42;29.30;76.60
54409;DHT22;40315;48.620;9.828;2023-06-10T16:07:10;29.40;76.70
54409;DHT22;40315;48.620;9.828;2023-06-10T16:09:37;29.50;77.10
54409;DHT22;40315;48.620;9.828;2023-06-10T16:12:07;29.70;77.30
54409;DHT22;40315;48.620;9.828;2023-06-10T16:14:35;29.70;77.70
54409;DHT22;40315;48.620;9.828;2023-06-10T16:19:29;28.90;76.90
54409;DHT22;40315;48.620;9.828;2023-06-10T16:21:56;28.30;79.50
54409;DHT22;40315;48.620;9.828;2023-06-10T16:26:52;27.90;80.80
54409;DHT22;40315;48.620;9.828;2023-06-10T16:29:19;27.90;82.40
54409;DHT22;40315;48.620;9.828;2023-06-10T16:31:46;28.00;82.20